createdAt,value
2023-04-18T00:00:27.039Z,64.91
2023-04-18T00:02:53.916Z,65.00
2023-04-18T00:05:21.520Z,64.66
2023-04-18T00:07:48.241Z,65.17
2023-04-18T00:10:15.074Z,65.81
2023-04-18T00:12:41.516Z,65.76
2023-04-18T00:15:08.918Z,64.72
2023-04-18T00:17:38.397Z,63.55
2023-04-18T00:20:12.637Z,60.43
2023-04-18T00:22:43.019Z,60.49
2023-04-18T00:25:10.979Z,60.79
2023-04-18T00:27:41.404Z,59.43
2023-04-18T00:30:08.806Z,58.85
2023-04-18T00:32:37.630Z,57.91
2023-04-18T00:35:04.822Z,57.63
2023-04-18T00:37:31.210Z,57.44
2023-04-18T00:39:57.628Z,57.53
2023-04-18T00:42:25.909Z,57.14
2023-04-18T00:44:52.335Z,56.67
2023-04-18T00:47:18.734Z,56.89
2023-04-18T00:49:45.856Z,55.29
2023-04-18T00:52:12.941Z,54.84
2023-04-18T00:54:41.453Z,55.22
2023-04-18T00:57:08.037Z,53.74
2023-04-18T00:59:35.477Z,54.72
2023-04-18T01:02:03.834Z,53.99
2023-04-18T01:04:32.579Z,54.17
2023-04-18T01:07:00.904Z,55.03
2023-04-18T01:09:29.111Z,54.58
2023-04-18T01:11:55.559Z,54.02
2023-04-18T01:14:22.241Z,54.67
2023-04-18T01:16:48.754Z,53.64
2023-04-18T01:19:17.363Z,54.13
2023-04-18T01:21:43.908Z,53.04
2023-04-18T01:24:17.564Z,54.21
2023-04-18T01:26:47.455Z,54.69
2023-04-18T01:29:14.315Z,55.15
2023-04-18T01:31:41.371Z,53.90
2023-04-18T01:34:08.334Z,53.50
2023-04-18T01:36:36.685Z,54.39
2023-04-18T01:39:03.297Z,53.21
2023-04-18T01:41:32.402Z,54.05
2023-04-18T01:43:59.599Z,54.17
2023-04-18T01:46:26.397Z,54.44
2023-04-18T01:48:53.566Z,54.33
2023-04-18T01:51:20.894Z,53.67
2023-04-18T01:53:47.347Z,54.33
2023-04-18T01:56:13.917Z,54.39
2023-04-18T01:58:41.586Z,53.96
2023-04-18T02:01:08.350Z,54.13
2023-04-18T02:03:35.195Z,54.37
2023-04-18T02:06:04.011Z,53.86
2023-04-18T02:08:32.878Z,55.05
2023-04-18T02:11:01.007Z,53.44
2023-04-18T02:13:27.827Z,53.82
2023-04-18T02:15:54.246Z,53.91
2023-04-18T02:18:21.960Z,54.35
2023-04-18T02:20:48.780Z,53.94
2023-04-18T02:23:15.218Z,53.68
2023-04-18T02:25:41.604Z,53.52
2023-04-18T02:28:09.350Z,54.04
2023-04-18T02:30:35.951Z,54.04
2023-04-18T02:33:02.621Z,53.86
2023-04-18T02:35:29.135Z,54.31
2023-04-18T02:37:55.650Z,54.54
2023-04-18T02:40:22.153Z,54.02
2023-04-18T02:42:48.579Z,54.75
2023-04-18T02:45:15.089Z,55.03
2023-04-18T02:47:51.792Z,54.25
2023-04-18T02:50:20.697Z,54.90
2023-04-18T02:52:47.219Z,54.38
2023-04-18T02:55:14.682Z,55.36
2023-04-18T02:57:43.575Z,56.10
2023-04-18T03:00:38.864Z,55.66
2023-04-18T03:03:23.780Z,55.61
2023-04-18T03:05:58.172Z,56.66
2023-04-18T03:08:24.914Z,57.60
2023-04-18T03:10:51.613Z,58.45
2023-04-18T03:13:21.737Z,58.32
2023-04-18T03:15:48.498Z,58.44
2023-04-18T03:18:15.392Z,57.65
2023-04-18T03:20:43.225Z,58.50
2023-04-18T03:23:10.200Z,58.55
2023-04-18T03:25:37.178Z,58.20
2023-04-18T03:28:05.110Z,58.42
2023-04-18T03:30:33.118Z,57.64
2023-04-18T03:33:02.648Z,58.72
2023-04-18T03:35:29.344Z,57.44
2023-04-18T03:37:56.379Z,57.50
2023-04-18T03:40:30.184Z,57.91
2023-04-18T03:43:02.185Z,58.53
2023-04-18T03:45:28.933Z,58.03
2023-04-18T03:47:56.098Z,58.06
2023-04-18T03:50:25.542Z,57.87
2023-04-18T03:52:54.417Z,58.95
2023-04-18T03:55:20.934Z,58.97
2023-04-18T03:57:47.574Z,59.65
2023-04-18T04:00:21.195Z,60.67
2023-04-18T04:02:58.040Z,61.48
2023-04-18T04:05:24.530Z,61.64
2023-04-18T04:07:51.231Z,61.83
2023-04-18T04:10:18.140Z,61.86
2023-04-18T04:12:44.817Z,60.95
2023-04-18T04:15:11.733Z,61.54
2023-04-18T04:17:43.922Z,61.79
2023-04-18T04:20:11.908Z,62.06
2023-04-18T04:22:38.786Z,62.47
2023-04-18T04:25:05.455Z,62.38
2023-04-18T04:27:38.961Z,63.59
2023-04-18T04:30:12.029Z,63.67
2023-04-18T04:32:39.919Z,63.25
2023-04-18T04:35:08.348Z,63.08
2023-04-18T04:37:35.894Z,63.63
2023-04-18T04:40:19.981Z,63.58
2023-04-18T04:42:54.210Z,64.08
2023-04-18T04:45:29.971Z,64.74
2023-04-18T04:47:56.497Z,65.03
2023-04-18T04:50:23.421Z,64.85
2023-04-18T04:52:49.905Z,64.66
2023-04-18T04:55:17.404Z,64.66
2023-04-18T04:57:44.791Z,64.27
2023-04-18T05:00:33.897Z,64.52
2023-04-18T05:03:00.565Z,65.13
2023-04-18T05:05:27.880Z,65.19
2023-04-18T05:07:54.705Z,66.56
2023-04-18T05:10:21.632Z,66.20
2023-04-18T05:12:48.063Z,65.67
2023-04-18T05:15:16.092Z,65.47
2023-04-18T05:17:42.656Z,66.29
2023-04-18T05:20:10.052Z,66.08
2023-04-18T05:22:36.660Z,66.74
2023-04-18T05:25:03.266Z,66.31
2023-04-18T05:27:29.677Z,66.19
2023-04-18T05:29:56.084Z,66.84
2023-04-18T05:32:22.581Z,66.71
2023-04-18T05:34:49.106Z,66.98
2023-04-18T05:37:15.540Z,67.04
2023-04-18T05:39:41.939Z,67.02
2023-04-18T05:42:08.599Z,67.28
2023-04-18T05:44:35.483Z,67.06
2023-04-18T05:47:01.940Z,66.25
2023-04-18T05:49:28.333Z,66.97
2023-04-18T05:51:56.396Z,67.20
2023-04-18T05:54:24.997Z,67.41
2023-04-18T05:56:51.716Z,67.95
2023-04-18T05:59:18.187Z,66.79
2023-04-18T06:01:44.646Z,67.39
2023-04-18T06:04:11.218Z,67.07
2023-04-18T06:06:38.128Z,66.79
2023-04-18T06:09:04.578Z,67.22
2023-04-18T06:11:33.497Z,67.02
2023-04-18T06:14:00.142Z,67.30
2023-04-18T06:16:26.874Z,67.23
2023-04-18T06:18:53.372Z,67.34
2023-04-18T06:21:21.182Z,67.06
2023-04-18T06:23:48.009Z,67.47
2023-04-18T06:26:14.462Z,66.83
2023-04-18T06:28:40.909Z,67.58
2023-04-18T06:31:08.459Z,67.45
2023-04-18T06:33:36.429Z,67.81
2023-04-18T06:36:03.002Z,67.28
2023-04-18T06:38:29.419Z,67.51
2023-04-18T06:40:55.860Z,68.28
2023-04-18T06:43:22.245Z,68.12
2023-04-18T06:45:50.282Z,67.23
2023-04-18T06:48:16.794Z,67.63
2023-04-18T06:50:43.784Z,67.79
2023-04-18T06:53:10.232Z,68.05
2023-04-18T06:55:36.712Z,68.25
2023-04-18T06:58:03.192Z,67.63
2023-04-18T07:00:29.651Z,68.39
2023-04-18T07:02:56.287Z,67.60
2023-04-18T07:05:22.806Z,67.39
2023-04-18T07:07:49.279Z,67.47
2023-04-18T07:10:15.748Z,67.00
2023-04-18T07:12:42.119Z,67.99
2023-04-18T07:15:09.152Z,67.21
2023-04-18T07:17:35.584Z,67.24
2023-04-18T07:20:02.053Z,66.82
2023-04-18T07:22:28.428Z,67.41
2023-04-18T07:24:54.843Z,66.46
2023-04-18T07:27:21.212Z,66.10
2023-04-18T07:29:47.633Z,66.85
2023-04-18T07:32:14.061Z,66.15
2023-04-18T07:34:40.516Z,66.26
2023-04-18T07:37:07.071Z,65.81
2023-04-18T07:39:35.884Z,66.39
2023-04-18T07:42:04.105Z,66.59
2023-04-18T07:44:30.833Z,66.78
2023-04-18T07:46:57.400Z,67.12
2023-04-18T07:49:23.868Z,67.18
2023-04-18T07:51:50.321Z,67.04
2023-04-18T07:54:16.788Z,67.17
2023-04-18T07:56:43.262Z,66.35
2023-04-18T07:59:09.622Z,66.66
2023-04-18T08:01:36.047Z,65.65
2023-04-18T08:04:02.734Z,64.65
2023-04-18T08:06:29.394Z,64.66
2023-04-18T08:08:55.867Z,63.26
2023-04-18T08:11:22.271Z,62.83
2023-04-18T08:13:48.643Z,63.92
2023-04-18T08:16:17.286Z,63.88
2023-04-18T08:18:44.081Z,63.12
2023-04-18T08:21:10.658Z,64.18
2023-04-18T08:23:37.073Z,63.66
2023-04-18T08:26:03.468Z,62.86
2023-04-18T08:28:29.854Z,62.36
2023-04-18T08:30:56.603Z,62.35
2023-04-18T08:33:24.249Z,62.79
2023-04-18T08:35:51.416Z,62.75
2023-04-18T08:38:18.462Z,62.54
2023-04-18T08:40:45.926Z,62.90
2023-04-18T08:43:14.819Z,61.43
2023-04-18T08:45:45.156Z,61.82
2023-04-18T08:48:13.738Z,61.85
2023-04-18T08:50:41.308Z,62.27
2023-04-18T08:53:08.282Z,62.31
2023-04-18T08:55:35.474Z,62.36
2023-04-18T08:58:03.021Z,62.16
2023-04-18T09:00:29.426Z,62.77
2023-04-18T09:02:59.461Z,62.70
2023-04-18T09:05:27.422Z,63.36
2023-04-18T09:07:55.174Z,62.59
2023-04-18T09:10:29.240Z,62.93
2023-04-18T09:12:57.466Z,61.18
2023-04-18T09:15:27.204Z,61.55
2023-04-18T09:17:58.231Z,61.99
2023-04-18T09:20:41.997Z,62.25
2023-04-18T09:23:10.794Z,62.75
2023-04-18T09:25:46.512Z,63.03
2023-04-18T09:28:33.144Z,61.96
2023-04-18T09:31:09.593Z,61.47
2023-04-18T09:33:37.104Z,62.02
2023-04-18T09:36:21.734Z,62.48
2023-04-18T09:38:49.584Z,62.46
2023-04-18T09:41:19.925Z,62.77
2023-04-18T09:43:48.390Z,63.23
2023-04-18T09:46:17.477Z,62.87
2023-04-18T09:48:44.102Z,62.91
2023-04-18T09:51:14.656Z,62.85
2023-04-18T09:53:44.621Z,61.84
2023-04-18T09:56:25.922Z,62.53
2023-04-18T09:58:56.995Z,63.24
2023-04-18T10:01:28.301Z,62.83
2023-04-18T10:03:57.163Z,62.84
2023-04-18T10:06:27.239Z,62.43
2023-04-18T10:08:54.504Z,62.13
2023-04-18T10:11:21.918Z,60.95
2023-04-18T10:13:53.426Z,61.33
2023-04-18T10:16:20.668Z,60.97
2023-04-18T10:18:49.557Z,61.22
2023-04-18T10:21:15.945Z,61.83
2023-04-18T10:23:42.509Z,60.26
2023-04-18T10:26:11.999Z,60.60
2023-04-18T10:28:57.165Z,60.22
2023-04-18T10:31:28.628Z,59.57
2023-04-18T10:36:28.240Z,59.31
2023-04-18T10:39:19.856Z,58.93
2023-04-18T10:41:51.138Z,57.89
2023-04-18T10:44:24.721Z,57.11
2023-04-18T10:46:51.225Z,55.87
2023-04-18T10:49:28.870Z,56.46
2023-04-18T10:51:58.584Z,57.80
2023-04-18T10:54:38.949Z,57.52
2023-04-18T10:57:07.615Z,58.39
2023-04-18T10:59:38.408Z,59.04
2023-04-18T11:02:32.255Z,58.06
2023-04-18T11:05:00.150Z,58.68
2023-04-18T11:07:36.423Z,59.15
2023-04-18T11:10:04.564Z,58.21
2023-04-18T11:12:33.331Z,58.91
2023-04-18T11:15:03.407Z,58.37
2023-04-18T11:17:32.961Z,58.23
2023-04-18T11:20:11.404Z,57.77
2023-04-18T11:22:48.651Z,57.53
2023-04-18T11:25:16.395Z,57.57
2023-04-18T11:27:44.952Z,58.12
2023-04-18T11:30:13.152Z,57.29
2023-04-18T11:32:40.294Z,57.10
2023-04-18T11:35:11.967Z,58.07
2023-04-18T11:37:39.807Z,58.00
2023-04-18T11:40:09.361Z,57.29
2023-04-18T11:42:37.919Z,57.37
2023-04-18T11:45:09.549Z,57.49
2023-04-18T11:47:36.152Z,57.25
2023-04-18T11:50:04.983Z,57.44
2023-04-18T11:52:32.622Z,57.90
2023-04-18T11:55:18.444Z,58.14
2023-04-18T11:57:59.006Z,58.48
2023-04-18T12:00:38.330Z,57.84
2023-04-18T12:03:16.946Z,57.27
2023-04-18T12:05:43.541Z,57.95
2023-04-18T12:08:13.265Z,57.76
2023-04-18T12:10:53.487Z,57.81
2023-04-18T12:13:31.206Z,58.02
2023-04-18T12:15:58.117Z,58.54
2023-04-18T12:18:24.738Z,57.47
2023-04-18T12:20:53.949Z,56.88
2023-04-18T12:23:42.368Z,56.46
2023-04-18T12:26:13.550Z,57.07
2023-04-18T12:28:39.916Z,57.22
2023-04-18T12:31:07.302Z,57.85
2023-04-18T12:33:35.988Z,57.90
2023-04-18T12:36:02.755Z,57.21
2023-04-18T12:38:29.291Z,56.26
2023-04-18T12:40:55.800Z,56.30
2023-04-18T12:43:22.233Z,56.62
2023-04-18T12:45:49.904Z,55.40
2023-04-18T12:48:16.365Z,55.28
2023-04-18T12:50:42.740Z,54.74
2023-04-18T12:53:09.174Z,54.60
2023-04-18T12:55:36.192Z,55.23
2023-04-18T12:58:03.973Z,56.44
2023-04-18T13:00:32.518Z,56.38
2023-04-18T13:02:59.453Z,56.46
2023-04-18T13:05:31.733Z,56.11
2023-04-18T13:08:15.268Z,56.00
2023-04-18T13:10:43.286Z,56.53
2023-04-18T13:13:09.680Z,55.67
2023-04-18T13:15:36.185Z,55.25
2023-04-18T13:18:05.075Z,55.33
2023-04-18T13:20:32.489Z,55.22
2023-04-18T13:22:58.925Z,55.85
2023-04-18T13:25:26.488Z,56.28
2023-04-18T13:27:53.282Z,56.55
2023-04-18T13:30:20.300Z,55.56
2023-04-18T13:32:46.988Z,55.98
2023-04-18T13:35:13.632Z,55.87
2023-04-18T13:37:40.134Z,55.04
2023-04-18T13:40:07.211Z,54.93
2023-04-18T13:42:34.303Z,55.44
2023-04-18T13:45:00.680Z,55.85
2023-04-18T13:47:27.233Z,55.66
2023-04-18T13:49:53.761Z,56.07
2023-04-18T13:52:20.201Z,55.53
2023-04-18T13:54:46.947Z,55.57
2023-04-18T13:57:14.529Z,55.24
2023-04-18T13:59:41.153Z,55.62
2023-04-18T14:02:08.989Z,55.87
2023-04-18T14:04:36.182Z,54.70
2023-04-18T14:07:03.732Z,54.68
2023-04-18T14:09:30.212Z,54.28
2023-04-18T14:11:58.092Z,54.69
2023-04-18T14:14:24.580Z,54.82
2023-04-18T14:16:51.129Z,54.09
2023-04-18T14:19:17.908Z,54.83
2023-04-18T14:21:44.255Z,55.47
2023-04-18T14:24:10.681Z,55.31
2023-04-18T14:26:37.129Z,55.44
2023-04-18T14:29:05.020Z,54.82
2023-04-18T14:31:31.619Z,55.72
2023-04-18T14:33:58.133Z,55.59
2023-04-18T14:36:24.598Z,55.86
2023-04-18T14:38:51.009Z,55.63
2023-04-18T14:41:17.479Z,55.51
2023-04-18T14:43:43.904Z,55.25
2023-04-18T14:46:16.494Z,54.65
2023-04-18T14:48:48.717Z,54.64
2023-04-18T14:51:16.481Z,54.94
2023-04-18T14:53:43.394Z,54.91
2023-04-18T14:56:09.786Z,54.18
2023-04-18T14:58:36.222Z,54.20
2023-04-18T15:01:03.112Z,54.34
2023-04-18T15:03:29.747Z,54.19
2023-04-18T15:05:56.328Z,53.68
2023-04-18T15:08:22.683Z,53.63
2023-04-18T15:10:49.189Z,53.35
2023-04-18T15:13:15.845Z,53.45
2023-04-18T15:15:42.307Z,53.09
2023-04-18T15:18:08.932Z,52.85
2023-04-18T15:20:39.383Z,52.84
2023-04-18T15:23:05.808Z,52.88
2023-04-18T15:25:32.215Z,53.05
2023-04-18T15:27:58.677Z,53.36
2023-04-18T15:30:25.513Z,52.56
2023-04-18T15:32:52.298Z,52.91
2023-04-18T15:35:18.850Z,53.21
2023-04-18T15:37:45.360Z,52.83
2023-04-18T15:40:16.013Z,53.16
2023-04-18T15:42:43.582Z,52.83
2023-04-18T15:45:10.892Z,53.96
2023-04-18T15:47:38.422Z,53.22
2023-04-18T15:50:05.385Z,52.29
2023-04-18T15:52:31.859Z,51.52
2023-04-18T15:54:58.330Z,51.39
2023-04-18T15:57:24.784Z,51.42
2023-04-18T15:59:51.191Z,51.94
2023-04-18T16:02:17.730Z,52.15
2023-04-18T16:04:44.187Z,51.86
2023-04-18T16:07:12.394Z,51.56
2023-04-18T16:09:38.826Z,50.62
2023-04-18T16:12:07.060Z,51.01
2023-04-18T16:14:33.690Z,51.41
2023-04-18T16:17:00.409Z,51.08
2023-04-18T16:19:26.958Z,50.99
2023-04-18T16:21:53.337Z,51.65
2023-04-18T16:24:19.747Z,52.44
2023-04-18T16:26:46.310Z,52.47
2023-04-18T16:29:12.743Z,52.35
2023-04-18T16:31:39.200Z,52.34
2023-04-18T16:34:05.621Z,52.96
2023-04-18T16:36:34.954Z,53.18
2023-04-18T16:39:01.327Z,53.11
2023-04-18T16:41:27.841Z,53.44
2023-04-18T16:43:54.254Z,53.51
2023-04-18T16:46:20.740Z,52.49
2023-04-18T16:48:48.595Z,52.50
2023-04-18T16:51:15.786Z,51.19
2023-04-18T16:53:42.251Z,51.67
2023-04-18T16:56:08.974Z,52.23
2023-04-18T16:58:35.378Z,52.42
2023-04-18T17:01:02.301Z,53.17
2023-04-18T17:03:28.777Z,52.30
2023-04-18T17:05:55.806Z,52.32
2023-04-18T17:08:22.177Z,52.84
2023-04-18T17:10:51.687Z,52.99
2023-04-18T17:13:18.412Z,53.19
2023-04-18T17:15:44.854Z,53.36
2023-04-18T17:18:11.728Z,52.49
2023-04-18T17:20:38.189Z,53.31
2023-04-18T17:23:04.615Z,53.56
2023-04-18T17:25:31.841Z,53.65
2023-04-18T17:27:58.605Z,52.99
2023-04-18T17:30:25.138Z,52.88
2023-04-18T17:32:51.650Z,52.41
2023-04-18T17:35:18.270Z,52.57
2023-04-18T17:37:45.993Z,52.29
2023-04-18T17:40:13.045Z,52.00
2023-04-18T17:42:39.822Z,52.55
2023-04-18T17:45:08.312Z,52.74
2023-04-18T17:47:36.344Z,53.62
2023-04-18T17:50:03.953Z,54.10
2023-04-18T17:52:30.549Z,54.96
2023-04-18T17:54:57.258Z,55.16
2023-04-18T17:57:25.844Z,55.77
2023-04-18T17:59:52.570Z,55.57
2023-04-18T18:02:19.752Z,56.23
2023-04-18T18:04:46.977Z,56.38
2023-04-18T18:07:13.422Z,56.09
2023-04-18T18:09:41.488Z,56.54
2023-04-18T18:12:09.924Z,57.08
2023-04-18T18:14:36.549Z,57.21
2023-04-18T18:17:03.384Z,57.85
2023-04-18T18:19:29.832Z,57.91
2023-04-18T18:21:56.196Z,58.29
2023-04-18T18:24:22.760Z,58.24
2023-04-18T18:26:51.532Z,58.20
2023-04-18T18:29:19.215Z,58.16
2023-04-18T18:31:45.893Z,57.13
2023-04-18T18:34:12.461Z,56.23
2023-04-18T18:36:39.067Z,56.71
2023-04-18T18:39:05.591Z,57.04
2023-04-18T18:41:31.941Z,57.61
2023-04-18T18:43:58.352Z,57.85
2023-04-18T18:46:24.852Z,57.99
2023-04-18T18:48:51.824Z,58.37
2023-04-18T18:51:19.060Z,57.98
2023-04-18T18:53:46.564Z,57.79
2023-04-18T18:56:13.230Z,55.30
2023-04-18T18:58:40.321Z,56.01
2023-04-18T19:01:06.802Z,54.71
2023-04-18T19:03:34.589Z,55.14
2023-04-18T19:06:03.817Z,55.49
2023-04-18T19:08:30.872Z,55.80
2023-04-18T19:10:57.326Z,55.99
2023-04-18T19:13:24.210Z,56.26
2023-04-18T19:15:51.161Z,56.06
2023-04-18T19:18:19.829Z,56.22
2023-04-18T19:20:46.645Z,56.42
2023-04-18T19:23:13.044Z,55.82
2023-04-18T19:25:39.451Z,56.28
2023-04-18T19:28:05.865Z,56.36
2023-04-18T19:30:32.577Z,56.03
2023-04-18T19:32:59.085Z,56.03
2023-04-18T19:35:25.589Z,56.11
2023-04-18T19:37:52.072Z,56.46
2023-04-18T19:40:18.579Z,56.32
2023-04-18T19:42:45.946Z,56.72
2023-04-18T19:45:13.570Z,57.43
2023-04-18T19:47:40.007Z,57.45
2023-04-18T19:50:07.250Z,57.48
2023-04-18T19:52:33.644Z,56.90
2023-04-18T19:55:00.111Z,57.80
2023-04-18T19:57:27.688Z,57.47
2023-04-18T19:59:54.300Z,57.46
2023-04-18T20:02:20.745Z,56.42
2023-04-18T20:04:47.308Z,57.52
2023-04-18T20:07:13.760Z,57.32
2023-04-18T20:09:40.477Z,57.90
2023-04-18T20:12:06.871Z,58.26
2023-04-18T20:14:33.266Z,57.99
2023-04-18T20:16:59.712Z,57.81
2023-04-18T20:19:26.874Z,58.44
2023-04-18T20:21:53.277Z,57.49
2023-04-18T20:24:21.076Z,57.98
2023-04-18T20:26:47.785Z,58.22
2023-04-18T20:29:14.493Z,58.17
2023-04-18T20:31:42.324Z,58.61
2023-04-18T20:34:09.855Z,59.02
2023-04-18T20:36:41.296Z,58.56
2023-04-18T20:39:12.613Z,58.54
2023-04-18T20:41:49.209Z,58.22
2023-04-18T20:44:16.729Z,58.23
2023-04-18T20:46:43.176Z,59.17
2023-04-18T20:49:09.675Z,58.89
2023-04-18T20:51:37.012Z,58.86
2023-04-18T20:54:04.578Z,59.29
2023-04-18T20:56:31.874Z,59.17
2023-04-18T20:58:58.294Z,58.42
2023-04-18T21:01:24.862Z,58.96
2023-04-18T21:03:51.457Z,58.80
2023-04-18T21:06:19.106Z,59.38
2023-04-18T21:08:45.785Z,58.94
2023-04-18T21:11:12.175Z,59.13
2023-04-18T21:13:38.653Z,59.22
2023-04-18T21:16:07.611Z,59.64
2023-04-18T21:18:34.221Z,59.93
2023-04-18T21:21:00.886Z,60.14
2023-04-18T21:23:27.367Z,59.98
2023-04-18T21:25:53.894Z,59.71
2023-04-18T21:28:20.475Z,59.96
2023-04-18T21:30:46.943Z,59.53
2023-04-18T21:33:13.855Z,60.35
2023-04-18T21:35:40.330Z,60.10
2023-04-18T21:38:06.765Z,60.17
2023-04-18T21:40:33.320Z,60.21
2023-04-18T21:42:59.722Z,60.26
2023-04-18T21:45:26.259Z,60.22
2023-04-18T21:47:52.846Z,60.34
2023-04-18T21:50:19.448Z,60.38
2023-04-18T21:52:45.874Z,60.00
2023-04-18T21:55:12.400Z,60.47
2023-04-18T21:57:38.802Z,60.48
2023-04-18T22:00:08.467Z,60.80
2023-04-18T22:02:36.520Z,60.40
2023-04-18T22:05:03.138Z,60.35
2023-04-18T22:07:29.778Z,61.26
2023-04-18T22:09:58.399Z,60.90
2023-04-18T22:12:26.198Z,61.46
2023-04-18T22:14:52.779Z,61.98
2023-04-18T22:17:19.241Z,61.61
2023-04-18T22:19:47.169Z,60.75
2023-04-18T22:22:13.557Z,61.75
2023-04-18T22:24:39.933Z,61.93
2023-04-18T22:27:06.397Z,62.30
2023-04-18T22:29:32.928Z,61.96
2023-04-18T22:31:59.364Z,61.57
2023-04-18T22:34:25.810Z,61.86
2023-04-18T22:36:52.307Z,62.41
2023-04-18T22:39:18.666Z,62.13
2023-04-18T22:41:45.053Z,61.70
2023-04-18T22:44:11.495Z,61.29
2023-04-18T22:46:38.425Z,60.96
2023-04-18T22:49:05.515Z,62.11
2023-04-18T22:51:32.483Z,61.43
2023-04-18T22:53:58.951Z,61.60
2023-04-18T22:56:25.459Z,62.60
2023-04-18T22:58:51.902Z,62.34
2023-04-18T23:01:18.476Z,62.63
2023-04-18T23:03:45.452Z,62.06
2023-04-18T23:06:12.119Z,62.50
2023-04-18T23:08:38.583Z,62.10
2023-04-18T23:11:04.964Z,61.31
2023-04-18T23:13:31.412Z,62.45
2023-04-18T23:15:57.928Z,62.21
2023-04-18T23:18:24.375Z,61.95
2023-04-18T23:20:50.852Z,62.18
2023-04-18T23:23:17.250Z,62.50
2023-04-18T23:25:44.186Z,62.29
2023-04-18T23:28:10.651Z,62.60
2023-04-18T23:30:37.336Z,63.05
2023-04-18T23:33:03.845Z,63.20
2023-04-18T23:35:30.437Z,63.03
2023-04-18T23:37:57.276Z,63.45
2023-04-18T23:40:23.739Z,62.85
2023-04-18T23:42:50.116Z,62.93
2023-04-18T23:45:16.593Z,63.66
2023-04-18T23:47:43.003Z,63.71
2023-04-18T23:50:09.800Z,63.63
2023-04-18T23:52:38.062Z,64.21
2023-04-18T23:55:04.820Z,63.89
2023-04-18T23:57:31.236Z,64.24
2023-04-18T23:59:57.801Z,63.97
